createdAt,value
2023-04-15T00:02:57.381Z,86.1
2023-04-15T00:33:17.577Z,86.1
2023-04-15T01:03:36.866Z,87.2
2023-04-15T01:33:55.738Z,89.00001
2023-04-15T02:04:15.116Z,90
2023-04-15T02:34:32.569Z,91.6
2023-04-15T03:04:49.351Z,93.2
2023-04-15T03:35:06.900Z,93.2
2023-04-15T04:05:26.008Z,94.40001
2023-04-15T04:35:43.592Z,94.7
2023-04-15T05:06:01.490Z,95.1
2023-04-15T05:36:21.981Z,93.6
2023-04-15T06:06:40.650Z,91.6
2023-04-15T06:37:01.545Z,89.1
2023-04-15T07:07:27.250Z,73.1
2023-04-15T07:38:09.836Z,60.8
2023-04-15T08:08:34.751Z,57.8
2023-04-15T08:38:55.973Z,60.6
2023-04-15T09:09:29.481Z,52.3
2023-04-15T09:39:39.887Z,48.7
2023-04-15T10:10:01.050Z,45.8
2023-04-15T10:40:19.835Z,45.3
2023-04-15T11:10:36.609Z,48.4
2023-04-15T11:40:57.505Z,48.5
2023-04-15T12:11:09.483Z,53.6
2023-04-15T12:41:26.684Z,58.3
2023-04-15T13:11:47.659Z,60.3
2023-04-15T13:41:59.373Z,68.2
2023-04-15T14:12:15.769Z,74.9
2023-04-15T14:42:30.746Z,81.2
2023-04-15T15:12:47.473Z,82.40001
2023-04-15T15:43:01.718Z,82.7
2023-04-15T16:43:34.069Z,89.7
2023-04-15T17:13:53.680Z,91.2
2023-04-15T17:44:16.327Z,92.1
2023-04-15T18:14:34.995Z,90.4
2023-04-15T18:44:52.319Z,91.1
2023-04-15T19:15:09.967Z,90.9
2023-04-15T19:45:28.844Z,89.8
2023-04-15T20:15:47.525Z,90.7
2023-04-15T20:46:17.961Z,91.1
2023-04-15T21:16:32.143Z,91.1
2023-04-15T22:17:21.839Z,92.6
2023-04-15T22:47:40.970Z,92.40001
2023-04-15T23:18:02.095Z,92.80001
2023-04-15T23:48:20.201Z,93.5
